sensor_id;sensor_type;location;lat;lon;timestamp;P1;durP1;ratioP1;P2;durP2;ratioP2
35418;SDS011;21525;41.240;16.500;2022-10-22T00:02:21;13.60;;;9.60;;
35418;SDS011;21525;41.240;16.500;2022-10-22T00:04:47;12.27;;;9.73;;
35418;SDS011;21525;41.240;16.500;2022-10-22T00:07:18;12.02;;;9.55;;
35418;SDS011;21525;41.240;16.500;2022-10-22T00:09:45;13.32;;;9.82;;
35418;SDS011;21525;41.240;16.500;2022-10-22T00:12:11;11.93;;;9.88;;
35418;SDS011;21525;41.240;16.500;2022-10-22T00:14:38;12.32;;;9.40;;
35418;SDS011;21525;41.240;16.500;2022-10-22T00:17:04;13.43;;;9.65;;
35418;SDS011;21525;41.240;16.500;2022-10-22T00:19:30;11.52;;;9.50;;
35418;SDS011;21525;41.240;16.500;2022-10-22T00:21:55;10.98;;;9.20;;
35418;SDS011;21525;41.240;16.500;2022-10-22T00:24:22;11.95;;;9.55;;
35418;SDS011;21525;41.240;16.500;2022-10-22T00:26:49;10.57;;;8.82;;
35418;SDS011;21525;41.240;16.500;2022-10-22T00:29:15;11.07;;;9.02;;
35418;SDS011;21525;41.240;16.500;2022-10-22T00:31:44;13.40;;;9.23;;
35418;SDS011;21525;41.240;16.500;2022-10-22T00:34:17;10.80;;;8.50;;
35418;SDS011;21525;41.240;16.500;2022-10-22T00:36:46;12.60;;;8.68;;
35418;SDS011;21525;41.240;16.500;2022-10-22T00:39:16;12.45;;;9.63;;
35418;SDS011;21525;41.240;16.500;2022-10-22T00:41:44;13.27;;;9.40;;
35418;SDS011;21525;41.240;16.500;2022-10-22T00:47:15;12.68;;;8.90;;
35418;SDS011;21525;41.240;16.500;2022-10-22T00:49:42;14.38;;;9.20;;
35418;SDS011;21525;41.240;16.500;2022-10-22T00:52:08;12.05;;;7.72;;
35418;SDS011;21525;41.240;16.500;2022-10-22T00:54:36;13.60;;;9.35;;
35418;SDS011;21525;41.240;16.500;2022-10-22T00:57:02;12.57;;;9.20;;
35418;SDS011;21525;41.240;16.500;2022-10-22T00:59:28;13.68;;;8.88;;
35418;SDS011;21525;41.240;16.500;2022-10-22T01:01:55;11.52;;;8.93;;
35418;SDS011;21525;41.240;16.500;2022-10-22T01:04:21;11.35;;;8.05;;
35418;SDS011;21525;41.240;16.500;2022-10-22T01:06:47;11.75;;;8.25;;
35418;SDS011;21525;41.240;16.500;2022-10-22T01:14:23;14.07;;;7.68;;
35418;SDS011;21525;41.240;16.500;2022-10-22T01:17:07;10.45;;;7.85;;
35418;SDS011;21525;41.240;16.500;2022-10-22T01:22:21;11.10;;;7.95;;
35418;SDS011;21525;41.240;16.500;2022-10-22T01:30:29;10.80;;;6.97;;
35418;SDS011;21525;41.240;16.500;2022-10-22T01:32:58;12.73;;;7.60;;
35418;SDS011;21525;41.240;16.500;2022-10-22T01:35:30;11.07;;;7.80;;
35418;SDS011;21525;41.240;16.500;2022-10-22T01:38:00;14.07;;;8.20;;
35418;SDS011;21525;41.240;16.500;2022-10-22T01:40:30;9.77;;;7.68;;
35418;SDS011;21525;41.240;16.500;2022-10-22T01:42:57;10.95;;;7.75;;
35418;SDS011;21525;41.240;16.500;2022-10-22T01:45:25;11.10;;;7.77;;
35418;SDS011;21525;41.240;16.500;2022-10-22T01:47:56;10.43;;;7.97;;
35418;SDS011;21525;41.240;16.500;2022-10-22T01:53:00;12.50;;;7.45;;
35418;SDS011;21525;41.240;16.500;2022-10-22T01:55:42;12.98;;;7.65;;
35418;SDS011;21525;41.240;16.500;2022-10-22T02:01:04;11.43;;;7.60;;
35418;SDS011;21525;41.240;16.500;2022-10-22T02:03:50;11.65;;;7.18;;
35418;SDS011;21525;41.240;16.500;2022-10-22T02:06:22;10.57;;;7.55;;
35418;SDS011;21525;41.240;16.500;2022-10-22T02:08:50;10.00;;;7.17;;
35418;SDS011;21525;41.240;16.500;2022-10-22T02:11:18;10.30;;;6.53;;
35418;SDS011;21525;41.240;16.500;2022-10-22T02:13:48;8.95;;;7.13;;
35418;SDS011;21525;41.240;16.500;2022-10-22T02:16:20;10.70;;;6.88;;
35418;SDS011;21525;41.240;16.500;2022-10-22T02:18:53;10.68;;;7.35;;
35418;SDS011;21525;41.240;16.500;2022-10-22T02:21:22;8.90;;;6.80;;
35418;SDS011;21525;41.240;16.500;2022-10-22T02:23:48;11.70;;;7.30;;
35418;SDS011;21525;41.240;16.500;2022-10-22T02:26:28;10.90;;;7.25;;
35418;SDS011;21525;41.240;16.500;2022-10-22T02:29:04;8.77;;;6.95;;
35418;SDS011;21525;41.240;16.500;2022-10-22T02:31:35;8.88;;;7.22;;
35418;SDS011;21525;41.240;16.500;2022-10-22T02:34:06;11.63;;;7.97;;
35418;SDS011;21525;41.240;16.500;2022-10-22T02:36:36;11.98;;;6.72;;
35418;SDS011;21525;41.240;16.500;2022-10-22T02:39:03;10.98;;;6.32;;
35418;SDS011;21525;41.240;16.500;2022-10-22T02:41:32;9.15;;;6.88;;
35418;SDS011;21525;41.240;16.500;2022-10-22T02:43:58;11.05;;;7.10;;
35418;SDS011;21525;41.240;16.500;2022-10-22T02:46:23;8.70;;;6.78;;
35418;SDS011;21525;41.240;16.500;2022-10-22T02:48:50;9.18;;;6.88;;
35418;SDS011;21525;41.240;16.500;2022-10-22T02:51:15;15.73;;;7.97;;
35418;SDS011;21525;41.240;16.500;2022-10-22T02:53:41;11.70;;;7.65;;
35418;SDS011;21525;41.240;16.500;2022-10-22T02:56:07;10.00;;;6.85;;
35418;SDS011;21525;41.240;16.500;2022-10-22T02:58:33;9.77;;;6.65;;
35418;SDS011;21525;41.240;16.500;2022-10-22T03:00:59;10.05;;;6.90;;
35418;SDS011;21525;41.240;16.500;2022-10-22T03:03:25;9.88;;;6.75;;
35418;SDS011;21525;41.240;16.500;2022-10-22T03:05:50;12.32;;;7.68;;
35418;SDS011;21525;41.240;16.500;2022-10-22T03:08:16;12.10;;;7.22;;
35418;SDS011;21525;41.240;16.500;2022-10-22T03:10:42;12.40;;;7.28;;
35418;SDS011;21525;41.240;16.500;2022-10-22T03:13:08;8.35;;;6.35;;
35418;SDS011;21525;41.240;16.500;2022-10-22T03:15:34;9.80;;;6.38;;
35418;SDS011;21525;41.240;16.500;2022-10-22T03:18:00;12.00;;;6.72;;
35418;SDS011;21525;41.240;16.500;2022-10-22T03:20:26;8.40;;;6.35;;
35418;SDS011;21525;41.240;16.500;2022-10-22T03:22:52;11.77;;;7.35;;
35418;SDS011;21525;41.240;16.500;2022-10-22T03:25:20;10.10;;;7.37;;
35418;SDS011;21525;41.240;16.500;2022-10-22T03:27:48;9.63;;;6.80;;
35418;SDS011;21525;41.240;16.500;2022-10-22T03:30:16;9.67;;;6.90;;
35418;SDS011;21525;41.240;16.500;2022-10-22T03:32:43;8.93;;;7.25;;
35418;SDS011;21525;41.240;16.500;2022-10-22T03:35:08;11.57;;;6.63;;
35418;SDS011;21525;41.240;16.500;2022-10-22T03:37:34;9.13;;;7.15;;
35418;SDS011;21525;41.240;16.500;2022-10-22T03:40:01;10.60;;;7.03;;
35418;SDS011;21525;41.240;16.500;2022-10-22T03:42:30;9.68;;;6.53;;
35418;SDS011;21525;41.240;16.500;2022-10-22T03:44:56;11.85;;;7.32;;
35418;SDS011;21525;41.240;16.500;2022-10-22T03:47:21;13.93;;;7.57;;
35418;SDS011;21525;41.240;16.500;2022-10-22T03:49:50;11.07;;;7.30;;
35418;SDS011;21525;41.240;16.500;2022-10-22T03:52:16;11.93;;;7.07;;
35418;SDS011;21525;41.240;16.500;2022-10-22T03:54:43;14.90;;;7.90;;
35418;SDS011;21525;41.240;16.500;2022-10-22T03:57:09;12.55;;;7.28;;
35418;SDS011;21525;41.240;16.500;2022-10-22T03:59:36;11.27;;;7.75;;
35418;SDS011;21525;41.240;16.500;2022-10-22T04:02:03;12.82;;;8.82;;
35418;SDS011;21525;41.240;16.500;2022-10-22T04:04:29;11.73;;;8.32;;
35418;SDS011;21525;41.240;16.500;2022-10-22T04:06:55;11.40;;;7.97;;
35418;SDS011;21525;41.240;16.500;2022-10-22T04:09:21;15.25;;;8.00;;
35418;SDS011;21525;41.240;16.500;2022-10-22T04:11:47;16.33;;;8.73;;
35418;SDS011;21525;41.240;16.500;2022-10-22T04:14:13;12.88;;;8.45;;
35418;SDS011;21525;41.240;16.500;2022-10-22T04:16:39;16.02;;;7.65;;
35418;SDS011;21525;41.240;16.500;2022-10-22T04:19:05;12.20;;;7.45;;
35418;SDS011;21525;41.240;16.500;2022-10-22T04:21:31;12.77;;;7.05;;
35418;SDS011;21525;41.240;16.500;2022-10-22T04:23:58;11.65;;;6.70;;
35418;SDS011;21525;41.240;16.500;2022-10-22T04:26:24;13.23;;;7.60;;
35418;SDS011;21525;41.240;16.500;2022-10-22T04:28:50;12.32;;;7.03;;
35418;SDS011;21525;41.240;16.500;2022-10-22T04:31:17;10.27;;;6.72;;
35418;SDS011;21525;41.240;16.500;2022-10-22T04:33:45;10.98;;;7.63;;
35418;SDS011;21525;41.240;16.500;2022-10-22T04:36:13;14.88;;;9.77;;
35418;SDS011;21525;41.240;16.500;2022-10-22T04:38:43;11.90;;;8.40;;
35418;SDS011;21525;41.240;16.500;2022-10-22T04:41:15;13.93;;;8.38;;
35418;SDS011;21525;41.240;16.500;2022-10-22T04:43:43;11.43;;;7.65;;
35418;SDS011;21525;41.240;16.500;2022-10-22T04:46:10;13.65;;;9.13;;
35418;SDS011;21525;41.240;16.500;2022-10-22T04:48:37;15.65;;;8.10;;
35418;SDS011;21525;41.240;16.500;2022-10-22T04:51:05;12.35;;;9.10;;
35418;SDS011;21525;41.240;16.500;2022-10-22T04:53:32;17.05;;;8.38;;
35418;SDS011;21525;41.240;16.500;2022-10-22T04:56:07;13.80;;;8.18;;
35418;SDS011;21525;41.240;16.500;2022-10-22T04:58:34;11.70;;;7.47;;
35418;SDS011;21525;41.240;16.500;2022-10-22T05:01:00;10.52;;;7.93;;
35418;SDS011;21525;41.240;16.500;2022-10-22T05:03:25;14.35;;;7.10;;
35418;SDS011;21525;41.240;16.500;2022-10-22T05:05:52;15.52;;;7.40;;
35418;SDS011;21525;41.240;16.500;2022-10-22T05:08:18;14.63;;;7.95;;
35418;SDS011;21525;41.240;16.500;2022-10-22T05:10:44;15.88;;;8.40;;
35418;SDS011;21525;41.240;16.500;2022-10-22T05:13:09;14.13;;;8.90;;
35418;SDS011;21525;41.240;16.500;2022-10-22T05:15:35;18.00;;;8.98;;
35418;SDS011;21525;41.240;16.500;2022-10-22T05:18:01;18.75;;;9.15;;
35418;SDS011;21525;41.240;16.500;2022-10-22T05:20:26;21.08;;;12.07;;
35418;SDS011;21525;41.240;16.500;2022-10-22T05:22:53;19.52;;;8.82;;
35418;SDS011;21525;41.240;16.500;2022-10-22T05:25:18;15.00;;;9.27;;
35418;SDS011;21525;41.240;16.500;2022-10-22T05:27:47;20.52;;;11.50;;
35418;SDS011;21525;41.240;16.500;2022-10-22T05:30:14;16.33;;;9.13;;
35418;SDS011;21525;41.240;16.500;2022-10-22T05:32:41;14.55;;;10.07;;
35418;SDS011;21525;41.240;16.500;2022-10-22T05:35:06;20.48;;;9.98;;
35418;SDS011;21525;41.240;16.500;2022-10-22T05:37:32;25.75;;;12.23;;
35418;SDS011;21525;41.240;16.500;2022-10-22T05:39:58;18.55;;;10.82;;
35418;SDS011;21525;41.240;16.500;2022-10-22T05:42:24;14.57;;;9.70;;
35418;SDS011;21525;41.240;16.500;2022-10-22T05:44:49;23.33;;;9.98;;
35418;SDS011;21525;41.240;16.500;2022-10-22T05:47:15;16.35;;;9.65;;
35418;SDS011;21525;41.240;16.500;2022-10-22T05:49:41;18.52;;;10.43;;
35418;SDS011;21525;41.240;16.500;2022-10-22T05:52:07;19.00;;;11.40;;
35418;SDS011;21525;41.240;16.500;2022-10-22T05:54:32;24.42;;;13.10;;
35418;SDS011;21525;41.240;16.500;2022-10-22T05:56:58;23.73;;;12.93;;
35418;SDS011;21525;41.240;16.500;2022-10-22T05:59:24;22.15;;;12.65;;
35418;SDS011;21525;41.240;16.500;2022-10-22T06:01:50;22.52;;;12.40;;
35418;SDS011;21525;41.240;16.500;2022-10-22T06:04:16;22.85;;;13.10;;
35418;SDS011;21525;41.240;16.500;2022-10-22T06:06:45;23.35;;;13.77;;
35418;SDS011;21525;41.240;16.500;2022-10-22T06:09:14;22.92;;;13.32;;
35418;SDS011;21525;41.240;16.500;2022-10-22T06:14:27;25.23;;;13.68;;
35418;SDS011;21525;41.240;16.500;2022-10-22T06:16:53;24.08;;;13.63;;
35418;SDS011;21525;41.240;16.500;2022-10-22T06:19:21;22.48;;;14.35;;
35418;SDS011;21525;41.240;16.500;2022-10-22T06:21:47;24.30;;;12.63;;
35418;SDS011;21525;41.240;16.500;2022-10-22T06:24:14;19.10;;;12.45;;
35418;SDS011;21525;41.240;16.500;2022-10-22T06:26:40;16.75;;;11.50;;
35418;SDS011;21525;41.240;16.500;2022-10-22T06:29:06;22.25;;;13.13;;
35418;SDS011;21525;41.240;16.500;2022-10-22T06:31:32;20.27;;;12.55;;
35418;SDS011;21525;41.240;16.500;2022-10-22T06:34:05;25.23;;;16.23;;
35418;SDS011;21525;41.240;16.500;2022-10-22T06:36:31;21.70;;;16.10;;
35418;SDS011;21525;41.240;16.500;2022-10-22T06:38:57;24.45;;;15.88;;
35418;SDS011;21525;41.240;16.500;2022-10-22T06:41:23;23.83;;;14.63;;
35418;SDS011;21525;41.240;16.500;2022-10-22T06:43:49;22.58;;;15.05;;
35418;SDS011;21525;41.240;16.500;2022-10-22T06:46:16;27.13;;;15.88;;
35418;SDS011;21525;41.240;16.500;2022-10-22T06:48:47;21.10;;;14.45;;
35418;SDS011;21525;41.240;16.500;2022-10-22T06:51:21;23.42;;;16.48;;
35418;SDS011;21525;41.240;16.500;2022-10-22T06:53:48;21.00;;;15.55;;
35418;SDS011;21525;41.240;16.500;2022-10-22T06:56:15;23.98;;;15.95;;
35418;SDS011;21525;41.240;16.500;2022-10-22T06:58:45;22.27;;;16.50;;
35418;SDS011;21525;41.240;16.500;2022-10-22T07:01:12;23.90;;;17.20;;
35418;SDS011;21525;41.240;16.500;2022-10-22T07:03:40;24.08;;;20.15;;
35418;SDS011;21525;41.240;16.500;2022-10-22T07:06:08;23.45;;;20.13;;
35418;SDS011;21525;41.240;16.500;2022-10-22T07:08:35;29.33;;;22.52;;
35418;SDS011;21525;41.240;16.500;2022-10-22T07:13:35;37.60;;;26.42;;
35418;SDS011;21525;41.240;16.500;2022-10-22T07:16:01;36.75;;;28.90;;
35418;SDS011;21525;41.240;16.500;2022-10-22T07:18:28;40.60;;;30.57;;
35418;SDS011;21525;41.240;16.500;2022-10-22T07:20:55;41.45;;;31.73;;
35418;SDS011;21525;41.240;16.500;2022-10-22T07:23:20;42.40;;;34.03;;
35418;SDS011;21525;41.240;16.500;2022-10-22T07:25:46;35.95;;;28.67;;
35418;SDS011;21525;41.240;16.500;2022-10-22T07:28:12;33.03;;;26.35;;
35418;SDS011;21525;41.240;16.500;2022-10-22T07:30:38;30.50;;;20.75;;
35418;SDS011;21525;41.240;16.500;2022-10-22T07:33:04;20.77;;;17.08;;
35418;SDS011;21525;41.240;16.500;2022-10-22T07:35:31;21.88;;;16.00;;
35418;SDS011;21525;41.240;16.500;2022-10-22T07:40:24;20.67;;;14.75;;
35418;SDS011;21525;41.240;16.500;2022-10-22T07:42:50;28.63;;;19.00;;
35418;SDS011;21525;41.240;16.500;2022-10-22T07:45:16;25.92;;;17.90;;
35418;SDS011;21525;41.240;16.500;2022-10-22T07:47:41;24.85;;;17.70;;
35418;SDS011;21525;41.240;16.500;2022-10-22T07:50:08;25.27;;;18.70;;
35418;SDS011;21525;41.240;16.500;2022-10-22T07:52:34;23.52;;;20.38;;
35418;SDS011;21525;41.240;16.500;2022-10-22T07:55:00;22.02;;;18.33;;
35418;SDS011;21525;41.240;16.500;2022-10-22T07:57:25;26.05;;;18.23;;
35418;SDS011;21525;41.240;16.500;2022-10-22T07:59:51;20.33;;;15.52;;
35418;SDS011;21525;41.240;16.500;2022-10-22T08:02:17;17.40;;;13.38;;
35418;SDS011;21525;41.240;16.500;2022-10-22T08:04:43;18.40;;;11.57;;
35418;SDS011;21525;41.240;16.500;2022-10-22T08:07:08;15.35;;;9.38;;
35418;SDS011;21525;41.240;16.500;2022-10-22T08:09:34;12.93;;;8.80;;
35418;SDS011;21525;41.240;16.500;2022-10-22T08:12:00;11.93;;;7.93;;
35418;SDS011;21525;41.240;16.500;2022-10-22T08:14:25;14.02;;;9.30;;
35418;SDS011;21525;41.240;16.500;2022-10-22T08:16:52;14.50;;;9.23;;
35418;SDS011;21525;41.240;16.500;2022-10-22T08:19:17;12.68;;;8.80;;
35418;SDS011;21525;41.240;16.500;2022-10-22T08:21:45;14.80;;;8.65;;
35418;SDS011;21525;41.240;16.500;2022-10-22T08:24:12;15.27;;;8.13;;
35418;SDS011;21525;41.240;16.500;2022-10-22T08:26:38;14.65;;;6.53;;
35418;SDS011;21525;41.240;16.500;2022-10-22T08:29:05;14.10;;;7.00;;
35418;SDS011;21525;41.240;16.500;2022-10-22T08:31:31;14.25;;;6.47;;
35418;SDS011;21525;41.240;16.500;2022-10-22T08:33:57;8.65;;;5.82;;
35418;SDS011;21525;41.240;16.500;2022-10-22T08:36:23;12.07;;;6.43;;
35418;SDS011;21525;41.240;16.500;2022-10-22T08:38:48;9.57;;;5.65;;
35418;SDS011;21525;41.240;16.500;2022-10-22T08:41:15;11.10;;;6.63;;
35418;SDS011;21525;41.240;16.500;2022-10-22T08:49:08;11.48;;;6.47;;
35418;SDS011;21525;41.240;16.500;2022-10-22T08:51:41;15.02;;;8.43;;
35418;SDS011;21525;41.240;16.500;2022-10-22T08:56:42;12.63;;;7.38;;
35418;SDS011;21525;41.240;16.500;2022-10-22T08:59:21;12.10;;;7.32;;
35418;SDS011;21525;41.240;16.500;2022-10-22T09:01:52;10.27;;;7.22;;
35418;SDS011;21525;41.240;16.500;2022-10-22T09:07:02;11.05;;;6.82;;
35418;SDS011;21525;41.240;16.500;2022-10-22T09:09:29;14.77;;;8.02;;
35418;SDS011;21525;41.240;16.500;2022-10-22T09:11:59;9.52;;;5.40;;
35418;SDS011;21525;41.240;16.500;2022-10-22T09:14:28;9.40;;;5.90;;
35418;SDS011;21525;41.240;16.500;2022-10-22T09:23:11;10.25;;;5.80;;
35418;SDS011;21525;41.240;16.500;2022-10-22T09:25:41;10.35;;;5.90;;
35418;SDS011;21525;41.240;16.500;2022-10-22T09:28:09;11.13;;;5.70;;
35418;SDS011;21525;41.240;16.500;2022-10-22T09:30:36;9.20;;;5.95;;
35418;SDS011;21525;41.240;16.500;2022-10-22T09:35:50;8.93;;;5.32;;
35418;SDS011;21525;41.240;16.500;2022-10-22T09:38:28;7.57;;;5.40;;
35418;SDS011;21525;41.240;16.500;2022-10-22T09:40:57;7.68;;;5.47;;
35418;SDS011;21525;41.240;16.500;2022-10-22T09:43:25;11.15;;;7.07;;
35418;SDS011;21525;41.240;16.500;2022-10-22T09:45:55;12.73;;;6.72;;
35418;SDS011;21525;41.240;16.500;2022-10-22T09:48:35;13.65;;;8.52;;
35418;SDS011;21525;41.240;16.500;2022-10-22T09:51:05;13.90;;;7.75;;
35418;SDS011;21525;41.240;16.500;2022-10-22T09:53:42;13.50;;;7.00;;
35418;SDS011;21525;41.240;16.500;2022-10-22T09:58:46;12.63;;;7.32;;
35418;SDS011;21525;41.240;16.500;2022-10-22T10:01:23;11.88;;;7.03;;
35418;SDS011;21525;41.240;16.500;2022-10-22T10:03:51;10.57;;;7.38;;
35418;SDS011;21525;41.240;16.500;2022-10-22T10:06:18;9.63;;;7.10;;
35418;SDS011;21525;41.240;16.500;2022-10-22T10:08:46;15.60;;;7.65;;
35418;SDS011;21525;41.240;16.500;2022-10-22T10:17:07;8.65;;;6.40;;
35418;SDS011;21525;41.240;16.500;2022-10-22T10:27:47;11.13;;;8.52;;
35418;SDS011;21525;41.240;16.500;2022-10-22T10:30:21;9.77;;;6.85;;
35418;SDS011;21525;41.240;16.500;2022-10-22T10:38:09;10.18;;;6.90;;
35418;SDS011;21525;41.240;16.500;2022-10-22T10:49:15;11.73;;;6.20;;
35418;SDS011;21525;41.240;16.500;2022-10-22T10:57:33;10.88;;;6.15;;
35418;SDS011;21525;41.240;16.500;2022-10-22T11:00:21;11.43;;;7.32;;
35418;SDS011;21525;41.240;16.500;2022-10-22T11:05:53;11.27;;;7.88;;
35418;SDS011;21525;41.240;16.500;2022-10-22T11:08:27;10.95;;;6.60;;
35418;SDS011;21525;41.240;16.500;2022-10-22T11:16:31;12.02;;;7.85;;
35418;SDS011;21525;41.240;16.500;2022-10-22T11:19:24;12.95;;;7.38;;
35418;SDS011;21525;41.240;16.500;2022-10-22T11:25:00;12.65;;;8.30;;
35418;SDS011;21525;41.240;16.500;2022-10-22T11:27:39;11.85;;;8.52;;
35418;SDS011;21525;41.240;16.500;2022-10-22T11:30:17;11.48;;;8.07;;
35418;SDS011;21525;41.240;16.500;2022-10-22T11:32:46;11.27;;;7.63;;
35418;SDS011;21525;41.240;16.500;2022-10-22T11:35:24;12.00;;;8.15;;
35418;SDS011;21525;41.240;16.500;2022-10-22T11:38:03;11.57;;;7.57;;
35418;SDS011;21525;41.240;16.500;2022-10-22T11:40:34;12.38;;;7.55;;
35418;SDS011;21525;41.240;16.500;2022-10-22T11:43:05;10.73;;;7.50;;
35418;SDS011;21525;41.240;16.500;2022-10-22T11:45:36;11.88;;;8.23;;
35418;SDS011;21525;41.240;16.500;2022-10-22T12:16:57;18.70;;;9.82;;
35418;SDS011;21525;41.240;16.500;2022-10-22T12:19:30;14.88;;;8.18;;
35418;SDS011;21525;41.240;16.500;2022-10-22T12:24:39;15.40;;;8.88;;
35418;SDS011;21525;41.240;16.500;2022-10-22T12:27:20;12.98;;;8.95;;
35418;SDS011;21525;41.240;16.500;2022-10-22T12:29:46;12.45;;;9.30;;
35418;SDS011;21525;41.240;16.500;2022-10-22T12:32:13;12.80;;;9.05;;
35418;SDS011;21525;41.240;16.500;2022-10-22T12:34:47;12.23;;;8.80;;
35418;SDS011;21525;41.240;16.500;2022-10-22T12:37:15;12.80;;;8.95;;
35418;SDS011;21525;41.240;16.500;2022-10-22T12:39:41;13.18;;;8.35;;
35418;SDS011;21525;41.240;16.500;2022-10-22T12:42:12;12.38;;;8.77;;
35418;SDS011;21525;41.240;16.500;2022-10-22T12:44:44;13.32;;;9.40;;
35418;SDS011;21525;41.240;16.500;2022-10-22T12:47:16;11.85;;;8.45;;
35418;SDS011;21525;41.240;16.500;2022-10-22T12:49:46;12.35;;;9.45;;
35418;SDS011;21525;41.240;16.500;2022-10-22T12:52:15;15.10;;;9.55;;
35418;SDS011;21525;41.240;16.500;2022-10-22T12:54:48;14.85;;;9.18;;
35418;SDS011;21525;41.240;16.500;2022-10-22T12:57:17;11.80;;;8.55;;
35418;SDS011;21525;41.240;16.500;2022-10-22T12:59:46;11.43;;;8.35;;
35418;SDS011;21525;41.240;16.500;2022-10-22T13:02:23;13.48;;;8.75;;
35418;SDS011;21525;41.240;16.500;2022-10-22T13:07:46;13.25;;;8.15;;
35418;SDS011;21525;41.240;16.500;2022-10-22T13:12:55;13.25;;;8.82;;
35418;SDS011;21525;41.240;16.500;2022-10-22T13:18:21;11.80;;;8.23;;
35418;SDS011;21525;41.240;16.500;2022-10-22T13:20:55;14.02;;;8.10;;
35418;SDS011;21525;41.240;16.500;2022-10-22T13:23:22;13.90;;;8.88;;
35418;SDS011;21525;41.240;16.500;2022-10-22T13:28:28;13.90;;;8.93;;
35418;SDS011;21525;41.240;16.500;2022-10-22T13:30:57;15.00;;;8.00;;
35418;SDS011;21525;41.240;16.500;2022-10-22T13:33:37;11.43;;;8.13;;
35418;SDS011;21525;41.240;16.500;2022-10-22T13:36:05;10.95;;;7.40;;
35418;SDS011;21525;41.240;16.500;2022-10-22T13:38:32;11.20;;;7.70;;
35418;SDS011;21525;41.240;16.500;2022-10-22T13:40:58;15.52;;;8.20;;
35418;SDS011;21525;41.240;16.500;2022-10-22T13:43:24;9.93;;;7.00;;
35418;SDS011;21525;41.240;16.500;2022-10-22T13:45:53;12.68;;;8.02;;
35418;SDS011;21525;41.240;16.500;2022-10-22T13:48:22;10.77;;;7.28;;
35418;SDS011;21525;41.240;16.500;2022-10-22T13:50:50;11.90;;;7.28;;
35418;SDS011;21525;41.240;16.500;2022-10-22T13:53:18;11.80;;;7.10;;
35418;SDS011;21525;41.240;16.500;2022-10-22T13:55:46;11.02;;;7.85;;
35418;SDS011;21525;41.240;16.500;2022-10-22T13:58:17;10.80;;;8.60;;
35418;SDS011;21525;41.240;16.500;2022-10-22T14:00:46;12.00;;;7.32;;
35418;SDS011;21525;41.240;16.500;2022-10-22T14:03:16;12.65;;;8.02;;
35418;SDS011;21525;41.240;16.500;2022-10-22T14:05:46;11.57;;;7.22;;
35418;SDS011;21525;41.240;16.500;2022-10-22T14:08:16;10.82;;;6.68;;
35418;SDS011;21525;41.240;16.500;2022-10-22T14:10:44;11.55;;;6.95;;
35418;SDS011;21525;41.240;16.500;2022-10-22T14:13:10;9.13;;;6.03;;
35418;SDS011;21525;41.240;16.500;2022-10-22T14:15:37;9.68;;;6.28;;
35418;SDS011;21525;41.240;16.500;2022-10-22T14:18:05;9.43;;;6.30;;
35418;SDS011;21525;41.240;16.500;2022-10-22T14:20:34;9.18;;;6.20;;
35418;SDS011;21525;41.240;16.500;2022-10-22T14:23:38;7.97;;;5.50;;
35418;SDS011;21525;41.240;16.500;2022-10-22T14:25:56;8.52;;;6.20;;
35418;SDS011;21525;41.240;16.500;2022-10-22T14:28:23;11.13;;;6.07;;
35418;SDS011;21525;41.240;16.500;2022-10-22T14:30:49;13.70;;;7.05;;
35418;SDS011;21525;41.240;16.500;2022-10-22T14:33:20;11.02;;;6.40;;
35418;SDS011;21525;41.240;16.500;2022-10-22T14:35:48;9.20;;;5.50;;
35418;SDS011;21525;41.240;16.500;2022-10-22T14:38:14;9.95;;;7.07;;
35418;SDS011;21525;41.240;16.500;2022-10-22T14:40:40;9.02;;;5.57;;
35418;SDS011;21525;41.240;16.500;2022-10-22T14:43:17;10.05;;;5.88;;
35418;SDS011;21525;41.240;16.500;2022-10-22T14:45:42;9.25;;;5.13;;
35418;SDS011;21525;41.240;16.500;2022-10-22T14:48:08;6.63;;;4.97;;
35418;SDS011;21525;41.240;16.500;2022-10-22T14:50:34;11.00;;;5.07;;
35418;SDS011;21525;41.240;16.500;2022-10-22T14:53:00;11.70;;;6.00;;
35418;SDS011;21525;41.240;16.500;2022-10-22T14:55:25;10.60;;;5.47;;
35418;SDS011;21525;41.240;16.500;2022-10-22T14:57:52;10.60;;;5.50;;
35418;SDS011;21525;41.240;16.500;2022-10-22T15:00:19;8.52;;;5.68;;
35418;SDS011;21525;41.240;16.500;2022-10-22T15:02:45;9.07;;;4.95;;
35418;SDS011;21525;41.240;16.500;2022-10-22T15:05:12;8.70;;;5.40;;
35418;SDS011;21525;41.240;16.500;2022-10-22T15:07:38;8.07;;;5.70;;
35418;SDS011;21525;41.240;16.500;2022-10-22T15:10:04;9.05;;;5.47;;
35418;SDS011;21525;41.240;16.500;2022-10-22T15:12:31;10.82;;;5.38;;
35418;SDS011;21525;41.240;16.500;2022-10-22T15:14:57;8.82;;;5.35;;
35418;SDS011;21525;41.240;16.500;2022-10-22T15:17:23;7.85;;;5.25;;
35418;SDS011;21525;41.240;16.500;2022-10-22T15:19:49;8.07;;;5.25;;
35418;SDS011;21525;41.240;16.500;2022-10-22T15:22:14;9.77;;;5.45;;
35418;SDS011;21525;41.240;16.500;2022-10-22T15:24:40;11.20;;;5.43;;
35418;SDS011;21525;41.240;16.500;2022-10-22T15:29:38;10.80;;;6.13;;
35418;SDS011;21525;41.240;16.500;2022-10-22T15:32:05;10.85;;;5.13;;
35418;SDS011;21525;41.240;16.500;2022-10-22T15:34:35;8.82;;;5.40;;
35418;SDS011;21525;41.240;16.500;2022-10-22T15:37:03;12.75;;;8.00;;
35418;SDS011;21525;41.240;16.500;2022-10-22T15:39:30;18.33;;;14.18;;
35418;SDS011;21525;41.240;16.500;2022-10-22T15:41:58;11.10;;;6.90;;
35418;SDS011;21525;41.240;16.500;2022-10-22T15:44:27;11.38;;;7.45;;
35418;SDS011;21525;41.240;16.500;2022-10-22T15:46:55;17.65;;;10.13;;
35418;SDS011;21525;41.240;16.500;2022-10-22T15:49:21;17.75;;;12.68;;
35418;SDS011;21525;41.240;16.500;2022-10-22T15:51:48;11.68;;;6.25;;
35418;SDS011;21525;41.240;16.500;2022-10-22T15:54:15;9.75;;;5.85;;
35418;SDS011;21525;41.240;16.500;2022-10-22T15:56:43;12.65;;;6.13;;
35418;SDS011;21525;41.240;16.500;2022-10-22T15:59:09;8.38;;;5.68;;
35418;SDS011;21525;41.240;16.500;2022-10-22T16:01:37;18.38;;;11.43;;
35418;SDS011;21525;41.240;16.500;2022-10-22T16:04:03;15.75;;;10.60;;
35418;SDS011;21525;41.240;16.500;2022-10-22T16:06:31;15.40;;;10.13;;
35418;SDS011;21525;41.240;16.500;2022-10-22T16:08:59;15.93;;;11.13;;
35418;SDS011;21525;41.240;16.500;2022-10-22T16:11:27;20.77;;;11.18;;
35418;SDS011;21525;41.240;16.500;2022-10-22T16:13:55;19.35;;;11.32;;
35418;SDS011;21525;41.240;16.500;2022-10-22T16:16:23;21.88;;;11.90;;
35418;SDS011;21525;41.240;16.500;2022-10-22T16:18:51;15.85;;;8.50;;
35418;SDS011;21525;41.240;16.500;2022-10-22T16:21:18;14.57;;;7.70;;
35418;SDS011;21525;41.240;16.500;2022-10-22T16:23:44;14.77;;;9.02;;
35418;SDS011;21525;41.240;16.500;2022-10-22T16:26:11;15.82;;;8.82;;
35418;SDS011;21525;41.240;16.500;2022-10-22T16:28:38;13.40;;;8.35;;
35418;SDS011;21525;41.240;16.500;2022-10-22T16:31:05;12.75;;;8.40;;
35418;SDS011;21525;41.240;16.500;2022-10-22T16:35:59;13.35;;;8.07;;
35418;SDS011;21525;41.240;16.500;2022-10-22T16:38:25;16.85;;;9.30;;
35418;SDS011;21525;41.240;16.500;2022-10-22T16:40:52;20.48;;;12.77;;
35418;SDS011;21525;41.240;16.500;2022-10-22T16:43:18;23.33;;;15.15;;
35418;SDS011;21525;41.240;16.500;2022-10-22T16:45:47;24.92;;;15.80;;
35418;SDS011;21525;41.240;16.500;2022-10-22T16:48:15;26.13;;;16.52;;
35418;SDS011;21525;41.240;16.500;2022-10-22T16:50:41;33.67;;;17.35;;
35418;SDS011;21525;41.240;16.500;2022-10-22T16:53:07;27.30;;;17.27;;